Saint Augustine, Florida
Current Conditions -  °F | °C
As of 7:58 PM on Monday 26 Jan 2015 (Local Time) from KSGJ Reporting Station
Clear Clear  
Wind Chill: 52°   Ceiling: Unl
Heat Index: 52°   Visibility: 10mi
Dew Point: 39°   Wind: 12mph
Humidity: 61%   Direction: 310°NW
Pressure: 29.9"   Gusts: 18mph
Location:  29.97°N, 81.33°W
Report Text: KSGJ 270058Z 31010G16KT 10SM CLR 11/04 A2990 RMK AO2 SLP123 T01110039
Loading
Personal Weather Stations






























Interactive Weather Map New forecast layout! Learn more

10-Day Weather Forecast

Advertisements
Track Severe Weather on mobile